createdAt,value
2016-03-01T00:00:29.513Z,83
2016-03-01T00:01:28.780Z,83
2016-03-01T00:02:28.065Z,83
2016-03-01T00:03:27.474Z,83
2016-03-01T00:04:26.648Z,83
2016-03-01T00:05:25.980Z,83
2016-03-01T00:06:27.013Z,83
2016-03-01T00:07:26.531Z,83
2016-03-01T00:08:26.112Z,83
2016-03-01T00:09:25.599Z,83
2016-03-01T00:10:25.148Z,83
2016-03-01T00:11:24.698Z,83
2016-03-01T00:12:24.388Z,83
2016-03-01T00:13:23.766Z,83
2016-03-01T00:14:23.315Z,83
2016-03-01T00:15:22.912Z,83
2016-03-01T00:16:23.898Z,83
2016-03-01T00:17:23.590Z,83
2016-03-01T00:18:22.983Z,83
2016-03-01T00:19:22.548Z,83
2016-03-01T00:20:22.097Z,83
2016-03-01T00:21:21.726Z,83
2016-03-01T00:22:21.275Z,83
2016-03-01T00:23:20.715Z,83
2016-03-01T00:24:20.218Z,83
2016-03-01T00:25:19.845Z,83
2016-03-01T00:26:20.833Z,83
2016-03-01T00:27:20.475Z,83
2016-03-01T00:28:20.072Z,83
2016-03-01T00:29:19.480Z,83
2016-03-01T00:30:18.986Z,83
2016-03-01T00:31:18.395Z,83
2016-03-01T00:32:17.616Z,83
2016-03-01T00:33:16.963Z,83
2016-03-01T00:34:16.263Z,83
2016-03-01T00:35:15.500Z,83
2016-03-01T00:36:16.488Z,83
2016-03-01T00:37:15.786Z,83
2016-03-01T00:38:15.102Z,83
2016-03-01T00:39:14.338Z,83
2016-03-01T00:40:13.638Z,83
2016-03-01T00:41:12.954Z,83
2016-03-01T00:42:12.207Z,83
2016-03-01T00:43:11.506Z,83
2016-03-01T00:44:10.791Z,83
2016-03-01T00:45:10.121Z,83
2016-03-01T00:46:11.140Z,83
2016-03-01T00:47:10.563Z,83
2016-03-01T00:48:09.707Z,83
2016-03-01T00:49:09.006Z,83
2016-03-01T00:50:08.290Z,83
2016-03-01T00:51:07.559Z,83
2016-03-01T00:52:06.862Z,83
2016-03-01T00:53:06.159Z,83
2016-03-01T00:54:05.427Z,83
2016-03-01T00:55:04.774Z,83
2016-03-01T00:56:05.792Z,83
2016-03-01T00:57:05.060Z,83
2016-03-01T00:58:04.360Z,83
2016-03-01T00:59:03.894Z,83
2016-03-01T01:00:03.538Z,83
2016-03-01T01:01:02.743Z,83
2016-03-01T01:02:01.995Z,83
2016-03-01T01:03:01.405Z,83
2016-03-01T01:04:00.690Z,83
2016-03-01T01:04:59.926Z,83
2016-03-01T01:06:00.929Z,83
2016-03-01T01:07:00.212Z,83
2016-03-01T01:07:59.512Z,83
2016-03-01T01:08:58.796Z,83
2016-03-01T01:09:58.081Z,83
2016-03-01T01:10:57.364Z,83
2016-03-01T01:11:56.648Z,83
2016-03-01T01:12:55.931Z,83
2016-03-01T01:13:55.497Z,83
2016-03-01T01:14:55.077Z,83
2016-03-01T01:15:56.111Z,83
2016-03-01T01:16:55.755Z,83
2016-03-01T01:17:55.305Z,83
2016-03-01T01:18:54.697Z,83
2016-03-01T01:19:54.232Z,83
2016-03-01T01:20:53.765Z,83
2016-03-01T01:21:53.316Z,83
2016-03-01T01:22:52.850Z,83
2016-03-01T01:23:52.399Z,83
2016-03-01T01:24:52.027Z,83
2016-03-01T01:25:52.998Z,83
2016-03-01T01:26:52.594Z,83
2016-03-01T01:27:52.207Z,83
2016-03-01T01:28:51.771Z,83
2016-03-01T01:29:51.149Z,83
2016-03-01T01:30:50.839Z,83
2016-03-01T01:31:50.232Z,83
2016-03-01T01:32:49.782Z,83
2016-03-01T01:33:49.316Z,83
2016-03-01T01:34:49.023Z,83
2016-03-01T01:35:49.915Z,83
2016-03-01T01:36:49.465Z,83
2016-03-01T01:37:49.014Z,83
2016-03-01T01:38:48.549Z,83
2016-03-01T01:39:48.192Z,83
2016-03-01T01:40:47.726Z,83
2016-03-01T01:41:47.182Z,83
2016-03-01T01:42:46.700Z,83
2016-03-01T01:43:46.234Z,83
2016-03-01T01:44:45.830Z,83
2016-03-01T01:45:46.848Z,83
2016-03-01T01:46:46.383Z,83
2016-03-01T01:47:45.917Z,83
2016-03-01T01:48:45.575Z,83
2016-03-01T01:49:45.156Z,83
2016-03-01T01:50:44.549Z,83
2016-03-01T01:51:44.083Z,83
2016-03-01T01:52:43.742Z,83
2016-03-01T01:53:43.167Z,83
2016-03-01T01:54:42.763Z,83
2016-03-01T01:55:43.766Z,83
2016-03-01T01:56:43.299Z,83
2016-03-01T01:57:42.835Z,83
2016-03-01T01:58:42.399Z,83
2016-03-01T01:59:42.043Z,83
2016-03-01T02:00:41.482Z,83
2016-03-01T02:01:41.032Z,83
2016-03-01T02:02:40.551Z,83
2016-03-01T02:03:40.085Z,83
2016-03-01T02:04:39.681Z,83
2016-03-01T02:05:40.684Z,83
2016-03-01T02:06:40.234Z,83
2016-03-01T02:07:39.752Z,83
2016-03-01T02:08:39.301Z,83
2016-03-01T02:09:38.851Z,83
2016-03-01T02:10:38.369Z,83
2016-03-01T02:11:38.090Z,83
2016-03-01T02:12:37.609Z,83
2016-03-01T02:13:37.112Z,83
2016-03-01T02:14:36.598Z,83
2016-03-01T02:15:37.711Z,83
2016-03-01T02:16:37.260Z,83
2016-03-01T02:17:36.669Z,83
2016-03-01T02:18:36.219Z,83
2016-03-01T02:19:35.752Z,83
2016-03-01T02:20:35.529Z,83
2016-03-01T02:21:35.143Z,83
2016-03-01T02:22:34.380Z,83
2016-03-01T02:23:34.385Z,83
2016-03-01T02:24:33.586Z,83
2016-03-01T02:25:34.510Z,83
2016-03-01T02:26:34.061Z,83
2016-03-01T02:27:33.625Z,83
2016-03-01T02:28:33.128Z,83
2016-03-01T02:29:32.788Z,83
2016-03-01T02:31:31.746Z,83
2016-03-01T02:32:31.421Z,83
2016-03-01T02:33:30.860Z,83
2016-03-01T02:34:30.473Z,83
2016-03-01T02:35:31.554Z,83
2016-03-01T02:36:30.962Z,83
2016-03-01T02:37:30.512Z,83
2016-03-01T02:38:30.061Z,83
2016-03-01T02:39:30.033Z,83
2016-03-01T02:40:29.645Z,83
2016-03-01T02:41:29.554Z,83
2016-03-01T02:42:28.979Z,83
2016-03-01T02:43:28.778Z,83
2016-03-01T02:44:28.375Z,83
2016-03-01T02:45:29.377Z,83
2016-03-01T02:46:29.176Z,83
2016-03-01T02:47:28.961Z,83
2016-03-01T02:48:28.776Z,83
2016-03-01T02:49:28.544Z,83
2016-03-01T02:50:28.359Z,83
2016-03-01T02:51:28.284Z,83
2016-03-01T02:52:27.927Z,83
2016-03-01T02:53:27.727Z,83
2016-03-01T02:54:27.573Z,83
2016-03-01T02:55:28.591Z,83
2016-03-01T02:56:28.375Z,83
2016-03-01T02:57:28.269Z,83
2016-03-01T02:58:27.975Z,83
2016-03-01T02:59:27.743Z,83
2016-03-01T03:00:27.558Z,83
2016-03-01T03:01:27.373Z,83
2016-03-01T03:02:27.126Z,83
2016-03-01T03:03:26.926Z,83
2016-03-01T03:04:26.772Z,83
2016-03-01T03:05:27.774Z,83
2016-03-01T03:06:27.559Z,83
2016-03-01T03:07:27.374Z,83
2016-03-01T03:08:27.158Z,83
2016-03-01T03:09:27.067Z,83
2016-03-01T03:10:26.741Z,83
2016-03-01T03:11:26.525Z,83
2016-03-01T03:12:26.325Z,83
2016-03-01T03:13:26.249Z,83
2016-03-01T03:14:26.001Z,83
2016-03-01T03:15:27.083Z,83
2016-03-01T03:16:26.789Z,83
2016-03-01T03:17:26.681Z,83
2016-03-01T03:18:26.356Z,83
2016-03-01T03:19:26.156Z,83
2016-03-01T03:20:25.955Z,83
2016-03-01T03:21:25.739Z,83
2016-03-01T03:22:25.539Z,83
2016-03-01T03:23:25.323Z,83
2016-03-01T03:24:25.278Z,83
2016-03-01T03:25:26.314Z,83
2016-03-01T03:26:25.988Z,83
2016-03-01T03:27:25.772Z,84
2016-03-01T03:28:25.805Z,83
2016-03-01T03:29:25.605Z,84
2016-03-01T03:30:25.794Z,84
2016-03-01T03:31:25.704Z,84
2016-03-01T03:32:25.754Z,84
2016-03-01T03:33:25.803Z,84
2016-03-01T03:34:25.915Z,84
2016-03-01T03:35:27.058Z,84
2016-03-01T03:36:27.077Z,84
2016-03-01T03:37:27.001Z,84
2016-03-01T03:38:27.052Z,84
2016-03-01T03:39:27.101Z,84
2016-03-01T03:40:27.260Z,84
2016-03-01T03:41:27.324Z,84
2016-03-01T03:42:27.249Z,84
2016-03-01T03:43:27.299Z,84
2016-03-01T03:44:27.396Z,84
2016-03-01T03:45:28.507Z,84
2016-03-01T03:46:28.432Z,84
2016-03-01T03:47:28.497Z,84
2016-03-01T03:48:28.531Z,84
2016-03-01T03:49:28.564Z,84
2016-03-01T03:50:28.631Z,84
2016-03-01T03:51:28.789Z,84
2016-03-01T03:52:28.839Z,84
2016-03-01T03:53:28.872Z,84
2016-03-01T03:54:28.984Z,84
2016-03-01T03:55:29.877Z,84
2016-03-01T03:56:29.912Z,84
2016-03-01T03:57:30.087Z,84
2016-03-01T03:58:30.027Z,84
2016-03-01T03:59:30.169Z,84
2016-03-01T04:00:30.125Z,84
2016-03-01T04:01:30.144Z,84
2016-03-01T04:02:30.194Z,84
2016-03-01T04:03:30.244Z,84
2016-03-01T04:04:30.480Z,84
2016-03-01T04:05:31.358Z,84
2016-03-01T04:06:31.391Z,84
2016-03-01T04:07:31.441Z,84
2016-03-01T04:08:31.490Z,84
2016-03-01T04:09:31.541Z,84
2016-03-01T04:10:31.585Z,84
2016-03-01T04:11:31.744Z,84
2016-03-01T04:12:31.810Z,84
2016-03-01T04:13:31.718Z,84
2016-03-01T04:14:31.830Z,84
2016-03-01T04:15:32.833Z,84
2016-03-01T04:16:32.867Z,84
2016-03-01T04:17:33.042Z,84
2016-03-01T04:18:32.998Z,84
2016-03-01T04:19:33.015Z,84
2016-03-01T04:20:33.066Z,84
2016-03-01T04:21:33.131Z,84
2016-03-01T04:22:33.149Z,84
2016-03-01T04:23:33.214Z,84
2016-03-01T04:24:33.436Z,84
2016-03-01T04:25:34.314Z,84
2016-03-01T04:26:34.488Z,84
2016-03-01T04:27:34.522Z,84
2016-03-01T04:28:34.462Z,84
2016-03-01T04:29:34.527Z,84
2016-03-01T04:30:34.545Z,84
2016-03-01T04:31:34.595Z,84
2016-03-01T04:32:34.645Z,84
2016-03-01T04:33:34.695Z,84
2016-03-01T04:34:34.806Z,84
2016-03-01T04:35:35.825Z,84
2016-03-01T04:36:35.874Z,84
2016-03-01T04:37:35.939Z,84
2016-03-01T04:38:35.942Z,84
2016-03-01T04:39:36.007Z,84
2016-03-01T04:40:36.150Z,84
2016-03-01T04:41:36.075Z,84
2016-03-01T04:42:36.249Z,84
2016-03-01T04:43:36.174Z,84
2016-03-01T04:44:36.271Z,84
2016-03-01T04:45:37.305Z,84
2016-03-01T04:46:37.323Z,84
2016-03-01T04:47:37.498Z,84
2016-03-01T04:48:37.437Z,84
2016-03-01T04:49:37.581Z,84
2016-03-01T04:50:37.520Z,84
2016-03-01T04:51:37.555Z,84
2016-03-01T04:52:37.620Z,84
2016-03-01T04:53:37.654Z,84
2016-03-01T04:54:37.750Z,84
2016-03-01T04:55:38.769Z,84
2016-03-01T04:56:38.818Z,84
2016-03-01T04:57:38.853Z,84
2016-03-01T04:58:38.887Z,84
2016-03-01T04:59:39.342Z,84
2016-03-01T05:00:39.236Z,84
2016-03-01T05:01:39.550Z,84
2016-03-01T05:02:39.600Z,84
2016-03-01T05:03:39.790Z,84
2016-03-01T05:04:39.747Z,84
2016-03-01T05:05:40.749Z,84
2016-03-01T05:06:40.783Z,84
2016-03-01T05:07:41.098Z,84
2016-03-01T05:08:41.397Z,84
2016-03-01T05:09:41.682Z,84
2016-03-01T05:10:41.980Z,84
2016-03-01T05:11:42.296Z,84
2016-03-01T05:12:42.705Z,84
2016-03-01T05:13:42.896Z,84
2016-03-01T05:14:43.241Z,84
2016-03-01T05:15:44.244Z,84
2016-03-01T05:16:44.701Z,84
2016-03-01T05:17:44.594Z,84
2016-03-01T05:18:44.908Z,84
2016-03-01T05:19:45.306Z,84
2016-03-01T05:20:45.484Z,84
2016-03-01T05:21:45.789Z,84
2016-03-01T05:22:46.062Z,84
2016-03-01T05:23:46.351Z,84
2016-03-01T05:24:46.818Z,84
2016-03-01T05:25:47.706Z,84
2016-03-01T05:26:47.987Z,84
2016-03-01T05:27:48.314Z,84
2016-03-01T05:28:48.343Z,84
2016-03-01T05:29:48.751Z,84
2016-03-01T05:30:48.940Z,84
2016-03-01T05:31:49.300Z,84
2016-03-01T05:32:49.582Z,84
2016-03-01T05:33:49.568Z,84
2016-03-01T05:34:49.929Z,84
2016-03-01T05:35:51.073Z,84
2016-03-01T05:36:51.231Z,84
2016-03-01T05:37:51.546Z,84
2016-03-01T05:38:51.829Z,84
2016-03-01T05:39:52.128Z,84
2016-03-01T05:40:52.444Z,84
2016-03-01T05:41:52.727Z,84
2016-03-01T05:42:53.042Z,84
2016-03-01T05:43:53.388Z,84
2016-03-01T05:44:53.703Z,84
2016-03-01T05:45:54.691Z,84
2016-03-01T05:46:54.990Z,84
2016-03-01T05:47:55.414Z,84
2016-03-01T05:48:55.714Z,84
2016-03-01T05:49:55.888Z,84
2016-03-01T05:50:56.204Z,84
2016-03-01T05:51:56.502Z,84
2016-03-01T05:52:56.802Z,84
2016-03-01T05:53:57.118Z,84
2016-03-01T05:54:57.574Z,84
2016-03-01T05:55:58.468Z,84
2016-03-01T05:56:58.766Z,84
2016-03-01T05:57:59.065Z,84
2016-03-01T05:58:59.366Z,84
2016-03-01T05:59:59.681Z,84
2016-03-01T06:00:59.965Z,84
2016-03-01T06:02:00.265Z,84
2016-03-01T06:03:00.564Z,84
2016-03-01T06:04:00.864Z,84
2016-03-01T06:05:01.335Z,84
2016-03-01T06:06:02.212Z,85
2016-03-01T06:07:02.778Z,84
2016-03-01T06:08:03.078Z,84
2016-03-01T06:09:03.377Z,84
2016-03-01T06:11:04.225Z,85
2016-03-01T06:12:04.807Z,85
2016-03-01T06:13:05.341Z,84
2016-03-01T06:14:05.766Z,85
2016-03-01T06:15:06.237Z,85
2016-03-01T06:16:07.271Z,84
2016-03-01T06:17:07.492Z,84
2016-03-01T06:18:07.854Z,84
2016-03-01T06:19:08.263Z,85
2016-03-01T06:20:08.719Z,84
2016-03-01T06:21:09.113Z,85
2016-03-01T06:22:09.568Z,85
2016-03-01T06:23:10.102Z,85
2016-03-01T06:24:10.651Z,85
2016-03-01T06:25:11.561Z,85
2016-03-01T06:26:12.282Z,85
2016-03-01T06:27:12.941Z,85
2016-03-01T06:28:13.382Z,85
2016-03-01T06:29:14.056Z,85
2016-03-01T06:30:14.527Z,85
2016-03-01T06:31:15.046Z,85
2016-03-01T06:32:15.720Z,85
2016-03-01T06:33:16.145Z,85
2016-03-01T06:34:16.695Z,84
2016-03-01T06:35:17.056Z,85
2016-03-01T06:36:18.059Z,85
2016-03-01T06:37:18.639Z,84
2016-03-01T06:38:18.909Z,85
2016-03-01T06:39:19.458Z,85
2016-03-01T06:40:20.054Z,85
2016-03-01T06:41:20.681Z,85
2016-03-01T06:42:21.169Z,85
2016-03-01T06:43:21.672Z,85
2016-03-01T06:44:22.253Z,85
2016-03-01T06:45:22.849Z,85
2016-03-01T06:46:23.852Z,85
2016-03-01T06:47:24.433Z,85
2016-03-01T06:48:24.969Z,85
2016-03-01T06:49:25.518Z,85
2016-03-01T06:50:26.052Z,85
2016-03-01T06:51:26.618Z,85
2016-03-01T06:52:27.198Z,84
2016-03-01T06:53:27.513Z,85
2016-03-01T06:54:28.032Z,85
2016-03-01T06:55:28.629Z,85
2016-03-01T06:56:29.632Z,85
2016-03-01T06:57:30.180Z,85
2016-03-01T06:58:30.730Z,85
2016-03-01T06:59:31.296Z,85
2016-03-01T07:00:31.860Z,85
2016-03-01T07:01:32.410Z,85
2016-03-01T07:02:33.069Z,85
2016-03-01T07:03:33.510Z,85
2016-03-01T07:04:34.074Z,85
2016-03-01T07:05:34.671Z,85
2016-03-01T07:06:35.673Z,85
2016-03-01T07:07:36.254Z,85
2016-03-01T07:08:36.789Z,85
2016-03-01T07:09:37.463Z,85
2016-03-01T07:10:37.887Z,85
2016-03-01T07:11:38.437Z,85
2016-03-01T07:12:38.986Z,85
2016-03-01T07:13:39.537Z,85
2016-03-01T07:14:40.101Z,85
2016-03-01T07:15:40.839Z,85
2016-03-01T07:16:41.716Z,85
2016-03-01T07:17:42.391Z,85
2016-03-01T07:18:42.956Z,85
2016-03-01T07:19:43.646Z,85
2016-03-01T07:20:44.430Z,85
2016-03-01T07:21:45.277Z,85
2016-03-01T07:22:46.092Z,85
2016-03-01T07:23:46.875Z,85
2016-03-01T07:24:47.660Z,85
2016-03-01T07:25:48.521Z,85
2016-03-01T07:26:49.666Z,85
2016-03-01T07:27:50.699Z,85
2016-03-01T07:28:51.655Z,85
2016-03-01T07:29:52.704Z,85
2016-03-01T07:30:53.769Z,85
2016-03-01T07:31:54.818Z,85
2016-03-01T07:32:55.884Z,85
2016-03-01T07:33:56.949Z,85
2016-03-01T07:34:58.030Z,85
2016-03-01T07:35:59.126Z,85
2016-03-01T07:37:00.129Z,85
2016-03-01T07:38:01.195Z,85
2016-03-01T07:39:02.244Z,85
2016-03-01T07:40:03.309Z,85
2016-03-01T07:41:04.390Z,85
2016-03-01T07:42:05.424Z,85
2016-03-01T07:43:06.631Z,85
2016-03-01T07:44:07.539Z,85
2016-03-01T07:45:08.603Z,85
2016-03-01T07:46:09.731Z,85
2016-03-01T07:47:10.750Z,85
2016-03-01T07:48:11.769Z,85
2016-03-01T07:49:12.865Z,85
2016-03-01T07:50:13.899Z,85
2016-03-01T07:51:15.072Z,85
2016-03-01T07:52:16.030Z,85
2016-03-01T07:53:17.110Z,85
2016-03-01T07:54:18.144Z,85
2016-03-01T07:55:19.208Z,85
2016-03-01T07:56:20.321Z,85
2016-03-01T07:57:21.324Z,85
2016-03-01T07:58:22.388Z,85
2016-03-01T07:59:23.392Z,85
2016-03-01T08:00:24.629Z,85
2016-03-01T08:01:25.568Z,85
2016-03-01T08:02:26.634Z,85
2016-03-01T08:03:27.684Z,86
2016-03-01T08:04:29.032Z,86
2016-03-01T08:05:30.317Z,86
2016-03-01T08:06:31.710Z,86
2016-03-01T08:07:32.681Z,86
2016-03-01T08:08:33.996Z,86
2016-03-01T08:09:35.312Z,86
2016-03-01T08:10:36.627Z,86
2016-03-01T08:11:38.317Z,86
2016-03-01T08:12:39.789Z,86
2016-03-01T08:13:41.339Z,86
2016-03-01T08:14:42.903Z,86
2016-03-01T08:15:44.469Z,86
2016-03-01T08:16:46.096Z,86
2016-03-01T08:17:47.225Z,86
2016-03-01T08:18:48.664Z,86
2016-03-01T08:19:50.230Z,86
2016-03-01T08:20:51.811Z,86
2016-03-01T08:21:53.485Z,86
2016-03-01T08:22:54.941Z,86
2016-03-01T08:23:56.505Z,86
2016-03-01T08:24:58.133Z,86
2016-03-01T08:26:00.121Z,86
2016-03-01T08:27:01.263Z,86
2016-03-01T08:28:02.251Z,86
2016-03-01T08:29:03.832Z,86
2016-03-01T08:30:05.396Z,86
2016-03-01T08:31:07.087Z,86
2016-03-01T08:32:08.574Z,86
2016-03-01T08:33:10.093Z,86
2016-03-01T08:34:11.657Z,86
2016-03-01T08:35:12.973Z,86
2016-03-01T08:36:14.288Z,86
2016-03-01T08:37:15.401Z,86
2016-03-01T08:38:16.403Z,86
2016-03-01T08:39:17.467Z,85
2016-03-01T08:40:18.268Z,85
2016-03-01T08:41:19.098Z,85
2016-03-01T08:42:19.742Z,85
2016-03-01T08:43:20.276Z,85
2016-03-01T08:44:20.497Z,84
2016-03-01T08:45:20.531Z,84
2016-03-01T08:46:20.720Z,84
2016-03-01T08:47:20.678Z,84
2016-03-01T08:48:21.680Z,84
2016-03-01T08:49:21.244Z,84
2016-03-01T08:50:20.872Z,83
2016-03-01T08:51:20.031Z,83
2016-03-01T08:52:19.425Z,83
2016-03-01T08:53:18.444Z,83
2016-03-01T08:54:17.384Z,82
2016-03-01T08:55:16.136Z,82
2016-03-01T08:56:14.935Z,82
2016-03-01T08:57:13.783Z,82
2016-03-01T08:58:14.753Z,82
2016-03-01T08:59:13.272Z,82
2016-03-01T09:00:11.790Z,82
2016-03-01T09:01:10.308Z,82
2016-03-01T09:02:08.608Z,82
2016-03-01T09:03:06.845Z,82
2016-03-01T09:04:05.113Z,81
2016-03-01T09:05:03.132Z,81
2016-03-01T09:06:01.134Z,81
2016-03-01T09:06:59.231Z,81
2016-03-01T09:08:00.218Z,81
2016-03-01T09:08:58.251Z,81
2016-03-01T09:09:56.004Z,80
2016-03-01T09:10:57.553Z,80
2016-03-01T09:11:59.135Z,79
2016-03-01T09:13:00.153Z,79
2016-03-01T09:14:01.218Z,79
2016-03-01T09:15:02.034Z,79
2016-03-01T09:16:02.801Z,79
2016-03-01T09:17:03.773Z,79
2016-03-01T09:18:04.666Z,79
2016-03-01T09:19:05.217Z,79
2016-03-01T09:20:05.750Z,79
2016-03-01T09:21:06.300Z,79
2016-03-01T09:22:07.130Z,79
2016-03-01T09:23:08.039Z,79
2016-03-01T09:24:08.714Z,79
2016-03-01T09:25:09.763Z,79
2016-03-01T09:26:10.829Z,79
2016-03-01T09:27:11.941Z,80
2016-03-01T09:28:12.958Z,80
2016-03-01T09:29:14.477Z,80
2016-03-01T09:30:12.277Z,81
2016-03-01T09:31:10.280Z,82
2016-03-01T09:32:08.844Z,82
2016-03-01T09:33:07.347Z,82
2016-03-01T09:34:06.116Z,82
2016-03-01T09:35:05.134Z,83
2016-03-01T09:36:04.434Z,83
2016-03-01T09:37:04.015Z,83
2016-03-01T09:38:05.033Z,84
2016-03-01T09:39:04.942Z,84
2016-03-01T09:40:04.616Z,84
2016-03-01T09:41:04.651Z,84
2016-03-01T09:42:04.715Z,84
2016-03-01T09:43:04.327Z,84
2016-03-01T09:44:05.033Z,84
2016-03-01T09:45:05.317Z,85
2016-03-01T09:46:05.882Z,85
2016-03-01T09:47:06.494Z,85
2016-03-01T09:48:07.498Z,85
2016-03-01T09:49:08.031Z,85
2016-03-01T09:50:08.705Z,85
2016-03-01T09:51:09.161Z,85
2016-03-01T09:52:09.961Z,85
2016-03-01T09:53:10.338Z,85
2016-03-01T09:54:11.591Z,85
2016-03-01T09:55:12.360Z,85
2016-03-01T09:56:13.175Z,85
2016-03-01T09:57:14.021Z,85
2016-03-01T09:58:15.056Z,85
2016-03-01T09:59:15.839Z,85
2016-03-01T10:00:16.639Z,85
2016-03-01T10:01:17.469Z,85
2016-03-01T10:02:18.269Z,85
2016-03-01T10:03:19.053Z,86
2016-03-01T10:04:20.134Z,86
2016-03-01T10:05:21.168Z,86
2016-03-01T10:06:22.249Z,86
2016-03-01T10:07:23.346Z,86
2016-03-01T10:08:24.348Z,86
2016-03-01T10:09:25.413Z,86
2016-03-01T10:10:26.494Z,86
2016-03-01T10:11:27.559Z,86
2016-03-01T10:12:28.593Z,86
2016-03-01T10:13:29.643Z,86
2016-03-01T10:14:30.710Z,86
2016-03-01T10:15:31.775Z,86
2016-03-01T10:16:32.856Z,86
2016-03-01T10:17:33.937Z,86
2016-03-01T10:18:34.955Z,86
2016-03-01T10:19:36.115Z,86
2016-03-01T10:20:37.055Z,86
2016-03-01T10:22:39.185Z,86
2016-03-01T10:23:40.234Z,86
2016-03-01T10:24:41.316Z,86
2016-03-01T10:25:42.364Z,86
2016-03-01T10:26:43.414Z,86
2016-03-01T10:27:44.636Z,86
2016-03-01T10:29:46.579Z,86
2016-03-01T10:30:47.660Z,86
2016-03-01T10:31:48.710Z,86
2016-03-01T10:32:49.774Z,86
2016-03-01T10:33:50.824Z,86
2016-03-01T10:34:51.874Z,86
2016-03-01T10:35:52.954Z,86
2016-03-01T10:36:54.019Z,86
2016-03-01T10:37:55.146Z,86
2016-03-01T10:38:56.135Z,86
2016-03-01T10:39:57.199Z,86
2016-03-01T10:40:58.280Z,86
2016-03-01T10:41:59.283Z,86
2016-03-01T10:43:00.348Z,86
2016-03-01T10:44:01.445Z,86
2016-03-01T10:45:02.479Z,86
2016-03-01T10:46:03.529Z,86
2016-03-01T10:47:04.656Z,86
2016-03-01T10:48:05.736Z,86
2016-03-01T10:49:06.709Z,86
2016-03-01T10:50:07.789Z,86
2016-03-01T10:51:09.120Z,86
2016-03-01T10:52:10.139Z,86
2016-03-01T10:53:11.219Z,86
2016-03-01T10:54:12.252Z,86
2016-03-01T10:55:13.317Z,86
2016-03-01T10:56:14.383Z,86
2016-03-01T10:57:15.448Z,86
2016-03-01T10:58:16.575Z,86
2016-03-01T10:59:17.578Z,84
2016-03-01T11:00:17.378Z,79
2016-03-01T11:01:18.443Z,75
2016-03-01T11:02:17.244Z,73
2016-03-01T11:03:18.793Z,71
2016-03-01T11:04:19.077Z,69
2016-03-01T11:05:18.579Z,69
2016-03-01T11:06:17.644Z,68
2016-03-01T11:07:16.147Z,67
2016-03-01T11:08:14.259Z,66
2016-03-01T11:09:15.230Z,65
2016-03-01T11:10:16.280Z,64
2016-03-01T11:11:17.096Z,64
2016-03-01T11:12:17.629Z,63
2016-03-01T11:13:17.695Z,63
2016-03-01T11:14:17.510Z,62
2016-03-01T11:15:17.028Z,62
2016-03-01T11:16:16.312Z,61
2016-03-01T11:17:15.346Z,61
2016-03-01T11:18:14.176Z,61
2016-03-01T11:19:15.179Z,60
2016-03-01T11:20:13.713Z,60
2016-03-01T11:21:12.107Z,60
2016-03-01T11:22:10.250Z,59
2016-03-01T11:23:08.378Z,59
2016-03-01T11:24:06.286Z,59
2016-03-01T11:25:04.070Z,59
2016-03-01T11:26:01.807Z,58
2016-03-01T11:27:03.389Z,58
2016-03-01T11:28:05.125Z,58
2016-03-01T11:29:06.128Z,58
2016-03-01T11:30:07.318Z,58
2016-03-01T11:31:08.758Z,57
2016-03-01T11:32:09.714Z,57
2016-03-01T11:33:10.763Z,57
2016-03-01T11:34:11.689Z,57
2016-03-01T11:35:12.379Z,57
2016-03-01T11:36:13.193Z,57
2016-03-01T11:37:14.009Z,56
2016-03-01T11:38:14.605Z,56
2016-03-01T11:39:15.608Z,56
2016-03-01T11:40:16.157Z,56
2016-03-01T11:41:16.473Z,56
2016-03-01T11:42:16.788Z,56
2016-03-01T11:43:17.181Z,56
2016-03-01T11:44:17.372Z,56
2016-03-01T11:45:17.671Z,56
2016-03-01T11:46:17.971Z,55
2016-03-01T11:47:18.004Z,55
2016-03-01T11:48:18.226Z,55
2016-03-01T11:49:19.245Z,55
2016-03-01T11:50:19.278Z,55
2016-03-01T11:51:18.968Z,55
2016-03-01T11:52:18.753Z,55
2016-03-01T11:53:18.552Z,55
2016-03-01T11:54:18.462Z,55
2016-03-01T11:55:18.245Z,55
2016-03-01T11:56:17.920Z,54
2016-03-01T11:57:17.578Z,54
2016-03-01T11:58:17.066Z,54
2016-03-01T11:59:18.193Z,54
2016-03-01T12:00:17.602Z,54
2016-03-01T12:01:17.151Z,54
2016-03-01T12:02:16.483Z,54
2016-03-01T12:03:15.735Z,54
2016-03-01T12:04:15.019Z,54
2016-03-01T12:05:14.303Z,54
2016-03-01T12:06:13.588Z,54
2016-03-01T12:07:12.872Z,54
2016-03-01T12:08:12.344Z,54
2016-03-01T12:09:13.236Z,53
2016-03-01T12:10:12.270Z,53
2016-03-01T12:11:11.397Z,53
2016-03-01T12:12:10.323Z,53
2016-03-01T12:13:09.466Z,53
2016-03-01T12:14:08.391Z,53
2016-03-01T12:15:07.425Z,53
2016-03-01T12:16:06.443Z,53
2016-03-01T12:17:05.414Z,53
2016-03-01T12:18:04.074Z,53
2016-03-01T12:19:05.076Z,53
2016-03-01T12:20:03.860Z,53
2016-03-01T12:21:02.643Z,53
2016-03-01T12:22:01.428Z,53
2016-03-01T12:23:00.321Z,53
2016-03-01T12:23:59.090Z,53
2016-03-01T12:24:57.765Z,53
2016-03-01T12:25:56.688Z,52
2016-03-01T12:26:55.222Z,52
2016-03-01T12:27:53.787Z,52
2016-03-01T12:28:54.806Z,52
2016-03-01T12:29:53.198Z,52
2016-03-01T12:30:51.842Z,52
2016-03-01T12:31:50.376Z,52
2016-03-01T12:32:48.801Z,52
2016-03-01T12:33:47.429Z,52
2016-03-01T12:34:45.587Z,52
2016-03-01T12:35:43.856Z,52
2016-03-01T12:36:42.139Z,52
2016-03-01T12:37:40.471Z,52
2016-03-01T12:38:41.473Z,52
2016-03-01T12:39:39.897Z,52
2016-03-01T12:40:38.136Z,52
2016-03-01T12:41:36.294Z,52
2016-03-01T12:42:34.563Z,52
2016-03-01T12:43:32.972Z,52
2016-03-01T12:44:31.237Z,52
2016-03-01T12:45:29.397Z,52
2016-03-01T12:46:27.774Z,52
2016-03-01T12:47:25.995Z,52
2016-03-01T12:48:27.108Z,52
2016-03-01T12:49:25.391Z,52
2016-03-01T12:50:23.691Z,51
2016-03-01T12:51:21.584Z,51
2016-03-01T12:52:19.602Z,51
2016-03-01T12:53:17.621Z,51
2016-03-01T12:54:15.638Z,51
2016-03-01T12:55:13.782Z,51
2016-03-01T12:56:11.691Z,51
2016-03-01T12:57:09.757Z,51
2016-03-01T12:58:10.774Z,51
2016-03-01T12:59:08.792Z,51
2016-03-01T13:00:06.921Z,51
2016-03-01T13:01:04.845Z,51
2016-03-01T13:02:02.848Z,51
2016-03-01T13:03:00.992Z,51
2016-03-01T13:03:58.634Z,51
2016-03-01T13:04:56.559Z,51
2016-03-01T13:05:54.187Z,51
2016-03-01T13:06:52.002Z,51
2016-03-01T13:07:53.005Z,51
2016-03-01T13:08:50.773Z,51
2016-03-01T13:09:48.542Z,51
2016-03-01T13:10:46.309Z,51
2016-03-01T13:11:44.078Z,51
2016-03-01T13:12:41.955Z,51
2016-03-01T13:13:39.615Z,51
2016-03-01T13:14:37.490Z,51
2016-03-01T13:15:35.150Z,51
2016-03-01T13:16:32.964Z,51
2016-03-01T13:17:33.967Z,51
2016-03-01T13:18:31.735Z,51
2016-03-01T13:19:29.503Z,51
2016-03-01T13:20:27.287Z,51
2016-03-01T13:21:25.056Z,51
2016-03-01T13:22:22.933Z,50
2016-03-01T13:23:24.373Z,50
2016-03-01T13:24:25.938Z,51
2016-03-01T13:25:23.722Z,50
2016-03-01T13:26:25.460Z,50
2016-03-01T13:27:26.384Z,50
2016-03-01T13:28:27.918Z,50
2016-03-01T13:29:29.482Z,50
2016-03-01T13:30:31.174Z,50
2016-03-01T13:31:32.754Z,50
2016-03-01T13:32:34.194Z,50
2016-03-01T13:33:35.760Z,50
2016-03-01T13:34:37.450Z,50
2016-03-01T13:35:39.237Z,50
2016-03-01T13:36:40.520Z,50
2016-03-01T13:37:41.523Z,50
2016-03-01T13:38:43.088Z,50
2016-03-01T13:39:44.779Z,50
2016-03-01T13:40:46.234Z,50
2016-03-01T13:41:47.909Z,50
2016-03-01T13:42:49.428Z,50
2016-03-01T13:43:50.794Z,50
2016-03-01T13:44:52.000Z,50
2016-03-01T13:45:53.424Z,50
2016-03-01T13:46:54.802Z,50
2016-03-01T13:47:55.804Z,50
2016-03-01T13:48:57.011Z,50
2016-03-01T13:49:58.310Z,50
2016-03-01T13:50:59.625Z,50
2016-03-01T13:52:00.957Z,50
2016-03-01T13:53:02.271Z,50
2016-03-01T13:54:03.587Z,50
2016-03-01T13:55:04.886Z,50
2016-03-01T13:56:06.263Z,50
2016-03-01T13:57:07.579Z,50
2016-03-01T13:58:08.582Z,50
2016-03-01T13:59:10.021Z,50
2016-03-01T14:00:11.337Z,50
2016-03-01T14:01:12.543Z,50
2016-03-01T14:02:13.859Z,50
2016-03-01T14:03:15.174Z,50
2016-03-01T14:04:16.489Z,50
2016-03-01T14:05:17.819Z,50
2016-03-01T14:06:19.244Z,50
2016-03-01T14:07:20.622Z,50
2016-03-01T14:08:21.500Z,50
2016-03-01T14:09:22.814Z,50
2016-03-01T14:10:24.130Z,50
2016-03-01T14:11:25.569Z,50
2016-03-01T14:12:26.760Z,50
2016-03-01T14:13:28.075Z,49
2016-03-01T14:14:29.141Z,49
2016-03-01T14:15:30.190Z,49
2016-03-01T14:16:31.255Z,49
2016-03-01T14:17:32.492Z,49
2016-03-01T14:18:33.385Z,49
2016-03-01T14:19:34.466Z,49
2016-03-01T14:20:35.516Z,49
2016-03-01T14:21:36.580Z,49